Time;durP1;ratioP1;P1;durP2;ratioP2;P2;SDS_P1;SDS_P2;PMS_P1;PMS_P2;Temp;Humidity;BMP_temperature;BMP_pressure;BME280_temperature;BME280_humidity;BME280_pressure;Samples;Min_cycle;Max_cycle;Signal;HPM_P1;HPM_P2
2023/06/26 00:02:18;;;;;;;8.15;4.57;;;20.50;99.90;;;;;;4985761;28;20034;-64
2023/06/26 00:04:44;;;;;;;8.10;4.93;;;20.50;99.90;;;;;;4983588;28;20489;-64
2023/06/26 00:07:10;;;;;;;6.28;4.70;;;20.50;99.90;;;;;;4982186;28;20031;-62
2023/06/26 00:09:36;;;;;;;8.45;5.35;;;20.40;99.90;;;;;;4989201;28;20069;-63
2023/06/26 00:12:02;;;;;;;6.80;4.70;;;20.30;99.90;;;;;;4987021;28;20066;-63
2023/06/26 00:14:28;;;;;;;9.10;5.40;;;20.30;99.90;;;;;;4981578;28;20403;-62
2023/06/26 00:16:53;;;;;;;7.10;5.00;;;20.20;99.90;;;;;;4986265;28;20041;-64
2023/06/26 00:19:19;;;;;;;6.88;4.70;;;20.20;99.90;;;;;;4990775;28;20053;-64
2023/06/26 00:21:48;;;;;;;7.93;5.10;;;20.10;99.90;;;;;;4987649;28;20026;-63
2023/06/26 00:24:14;;;;;;;6.30;4.57;;;20.20;99.90;;;;;;4990067;28;20030;-64
2023/06/26 00:26:40;;;;;;;9.10;5.10;;;20.20;99.90;;;;;;4990617;28;20014;-65
2023/06/26 00:29:05;;;;;;;6.05;4.07;;;20.30;99.90;;;;;;4985231;28;20042;-63
2023/06/26 00:31:31;;;;;;;7.88;5.15;;;20.20;99.90;;;;;;4981770;28;20026;-61
2023/06/26 00:33:57;;;;;;;6.95;4.90;;;20.20;99.90;;;;;;4989489;28;20022;-63
2023/06/26 00:36:23;;;;;;;6.07;4.97;;;20.20;99.90;;;;;;4988148;28;20111;-63
2023/06/26 00:38:49;;;;;;;6.50;4.43;;;20.10;99.90;;;;;;4986467;28;20034;-63
2023/06/26 00:41:16;;;;;;;6.13;5.10;;;20.00;99.90;;;;;;4994330;28;20042;-65
2023/06/26 00:43:41;;;;;;;6.40;4.72;;;20.00;99.90;;;;;;4986922;28;20026;-64
2023/06/26 00:46:10;;;;;;;6.38;4.57;;;19.90;99.90;;;;;;4984704;28;20403;-64
2023/06/26 00:48:37;;;;;;;12.98;5.40;;;19.90;99.90;;;;;;4975907;28;20511;-60
2023/06/26 00:51:03;;;;;;;7.30;5.05;;;19.90;99.90;;;;;;4985837;28;20038;-63
2023/06/26 00:53:30;;;;;;;9.23;5.30;;;19.90;99.90;;;;;;4981974;28;20513;-62
2023/06/26 00:55:55;;;;;;;7.47;4.35;;;19.90;99.90;;;;;;4979954;28;20023;-64
2023/06/26 00:58:24;;;;;;;7.82;5.18;;;20.00;99.90;;;;;;4987578;28;20097;-62
2023/06/26 01:00:51;;;;;;;9.65;5.18;;;20.00;99.90;;;;;;4984189;28;20030;-61
2023/06/26 01:03:17;;;;;;;9.18;5.20;;;20.00;99.90;;;;;;4981868;28;20392;-64
2023/06/26 01:05:45;;;;;;;7.10;4.90;;;19.90;99.90;;;;;;4987803;28;20449;-63
2023/06/26 01:08:13;;;;;;;7.25;5.05;;;19.90;99.90;;;;;;4988455;28;20030;-63
2023/06/26 01:10:38;;;;;;;10.32;5.43;;;19.80;99.90;;;;;;4981927;28;20534;-65
2023/06/26 01:13:05;;;;;;;7.68;4.60;;;19.80;99.90;;;;;;4989825;28;20022;-64
2023/06/26 01:15:30;;;;;;;9.35;5.20;;;19.70;99.90;;;;;;4988194;28;20515;-60
2023/06/26 01:17:59;;;;;;;5.95;4.40;;;19.60;99.90;;;;;;4987498;28;20044;-64
2023/06/26 01:20:27;;;;;;;7.55;4.63;;;19.50;99.90;;;;;;4987259;28;20037;-63
2023/06/26 01:23:20;;;;;;;9.35;4.93;;;19.50;99.90;;;;;;4984489;28;20606;-65
2023/06/26 01:26:18;;;;;;;7.50;5.20;;;19.50;99.90;;;;;;4984252;28;20022;-64
2023/06/26 01:28:44;;;;;;;6.88;4.93;;;19.50;99.90;;;;;;4983049;28;20023;-65
2023/06/26 01:31:14;;;;;;;11.25;5.75;;;19.50;99.90;;;;;;4986947;28;20022;-64
2023/06/26 01:33:40;;;;;;;8.02;5.38;;;19.50;99.90;;;;;;4988051;28;20022;-64
2023/06/26 01:36:07;;;;;;;6.68;5.22;;;19.50;99.90;;;;;;4992051;28;20080;-64
2023/06/26 01:38:34;;;;;;;8.38;5.38;;;19.40;99.90;;;;;;4984761;28;20033;-66
2023/06/26 01:41:00;;;;;;;7.45;4.90;;;19.30;99.90;;;;;;4985198;28;20062;-66
2023/06/26 01:43:47;;;;;;;6.50;4.68;;;19.30;99.90;;;;;;4988363;28;20038;-64
2023/06/26 01:46:34;;;;;;;6.95;4.53;;;19.20;99.90;;;;;;4987629;28;20105;-66
2023/06/26 01:49:20;;;;;;;8.00;5.22;;;19.20;99.90;;;;;;4982208;28;20054;-64
2023/06/26 01:52:06;;;;;;;6.93;4.72;;;19.10;99.90;;;;;;4981250;28;20384;-64
2023/06/26 01:54:39;;;;;;;7.22;5.43;;;19.10;99.90;;;;;;4985216;28;20034;-64
2023/06/26 01:57:08;;;;;;;7.82;5.72;;;19.00;99.90;;;;;;4987684;28;20033;-64
2023/06/26 01:59:34;;;;;;;6.53;4.32;;;19.00;99.90;;;;;;4986690;28;20432;-63
2023/06/26 02:02:01;;;;;;;7.13;4.60;;;19.00;99.90;;;;;;4992180;28;20089;-63
2023/06/26 02:04:26;;;;;;;7.35;4.72;;;19.00;99.90;;;;;;4988960;28;20033;-64
2023/06/26 02:06:52;;;;;;;7.03;4.40;;;19.00;99.90;;;;;;4987397;28;20034;-64
2023/06/26 02:09:18;;;;;;;7.18;4.85;;;18.90;99.90;;;;;;4988093;28;20050;-63
2023/06/26 02:11:43;;;;;;;5.70;4.40;;;19.00;99.90;;;;;;4987552;28;20403;-65
2023/06/26 02:14:10;;;;;;;7.80;5.22;;;18.90;99.90;;;;;;4990424;28;20073;-60
2023/06/26 02:16:36;;;;;;;8.40;4.72;;;18.90;99.90;;;;;;4991892;28;20023;-63
2023/06/26 02:19:01;;;;;;;7.93;4.80;;;18.90;99.90;;;;;;4988028;28;20113;-65
2023/06/26 02:21:27;;;;;;;8.68;4.70;;;18.90;99.90;;;;;;4992266;28;20045;-64
2023/06/26 02:23:52;;;;;;;8.05;5.25;;;18.90;99.90;;;;;;4998741;28;20034;-63
2023/06/26 02:26:18;;;;;;;7.03;4.82;;;18.80;99.90;;;;;;4986040;28;20512;-64
2023/06/26 02:28:44;;;;;;;6.80;4.65;;;18.80;99.90;;;;;;4989291;28;20408;-63
2023/06/26 02:31:09;;;;;;;11.98;4.97;;;18.70;99.90;;;;;;4991642;28;20076;-64
2023/06/26 02:33:35;;;;;;;7.07;4.55;;;18.60;99.90;;;;;;4990852;28;20054;-65
2023/06/26 02:36:00;;;;;;;6.07;4.45;;;18.60;99.90;;;;;;4992164;28;20495;-65
2023/06/26 02:38:26;;;;;;;10.77;4.22;;;18.60;99.90;;;;;;4986522;28;20030;-62
2023/06/26 02:40:52;;;;;;;6.75;4.60;;;18.60;99.90;;;;;;4985484;28;20046;-63
2023/06/26 02:43:17;;;;;;;8.48;5.07;;;18.60;99.90;;;;;;4992268;28;20030;-64
2023/06/26 02:45:43;;;;;;;8.00;5.43;;;18.60;99.90;;;;;;4993886;28;20045;-64
2023/06/26 02:48:08;;;;;;;6.93;4.45;;;18.60;99.90;;;;;;4992596;28;20096;-63
2023/06/26 02:50:34;;;;;;;7.28;4.70;;;18.60;99.90;;;;;;4980977;28;20026;-64
2023/06/26 02:52:59;;;;;;;6.70;4.50;;;18.60;99.90;;;;;;4991211;28;20391;-64
2023/06/26 02:55:25;;;;;;;5.65;4.10;;;18.50;99.90;;;;;;4987837;28;20101;-63
2023/06/26 02:57:51;;;;;;;7.15;4.72;;;18.50;99.90;;;;;;4989891;28;20081;-63
2023/06/26 03:00:17;;;;;;;10.07;5.05;;;18.40;99.90;;;;;;4991442;28;20578;-63
2023/06/26 03:02:42;;;;;;;8.07;4.50;;;18.40;99.90;;;;;;5000477;28;20033;-63
2023/06/26 03:05:08;;;;;;;7.57;5.75;;;18.40;99.90;;;;;;4994487;28;20065;-64
2023/06/26 03:07:34;;;;;;;7.75;4.63;;;18.50;99.90;;;;;;4984392;28;20500;-64
2023/06/26 03:10:00;;;;;;;7.43;4.88;;;18.40;99.90;;;;;;4990857;28;20077;-63
2023/06/26 03:12:25;;;;;;;7.85;4.93;;;18.40;99.90;;;;;;4989126;28;20064;-63
2023/06/26 03:14:51;;;;;;;6.88;4.78;;;18.40;99.90;;;;;;4990114;28;20508;-64
2023/06/26 03:17:17;;;;;;;6.72;4.80;;;18.30;99.90;;;;;;4989387;28;20097;-64
2023/06/26 03:19:43;;;;;;;7.03;4.95;;;18.30;99.90;;;;;;4990918;28;20141;-65
2023/06/26 03:22:08;;;;;;;5.95;4.25;;;18.30;99.90;;;;;;4992423;28;20057;-63
2023/06/26 03:24:34;;;;;;;6.75;4.65;;;18.30;99.90;;;;;;4991140;28;20037;-63
2023/06/26 03:26:59;;;;;;;8.20;5.15;;;18.40;99.90;;;;;;4981953;28;20077;-64
2023/06/26 03:29:25;;;;;;;6.35;4.30;;;18.40;99.90;;;;;;4988742;28;21086;-65
2023/06/26 03:31:51;;;;;;;6.50;4.45;;;18.40;99.90;;;;;;4991176;28;20026;-63
2023/06/26 03:34:16;;;;;;;6.10;4.43;;;18.50;99.90;;;;;;4992406;28;20027;-64
2023/06/26 03:36:42;;;;;;;7.00;4.82;;;18.50;99.90;;;;;;4990163;28;20026;-63
2023/06/26 03:39:08;;;;;;;6.25;4.50;;;18.50;99.90;;;;;;4990880;28;20119;-59
2023/06/26 03:41:33;;;;;;;8.18;4.78;;;18.60;99.90;;;;;;4990946;28;20435;-63
2023/06/26 03:44:00;;;;;;;6.35;4.40;;;18.60;99.90;;;;;;4983584;28;20030;-64
2023/06/26 03:46:26;;;;;;;6.75;4.60;;;18.60;99.90;;;;;;4990162;28;20027;-64
2023/06/26 03:48:51;;;;;;;7.90;4.40;;;18.70;99.90;;;;;;4990338;28;20018;-64
2023/06/26 03:51:17;;;;;;;7.15;4.63;;;18.80;99.90;;;;;;4987192;28;20026;-63
2023/06/26 03:53:42;;;;;;;6.80;4.47;;;18.80;99.90;;;;;;4988869;28;20018;-64
2023/06/26 03:56:08;;;;;;;6.22;4.07;;;18.90;99.90;;;;;;4990654;28;20475;-63
2023/06/26 03:58:34;;;;;;;6.43;4.00;;;19.00;99.90;;;;;;4988747;28;20018;-64
2023/06/26 04:01:00;;;;;;;8.43;5.03;;;19.20;99.90;;;;;;4989785;28;20035;-64
2023/06/26 04:05:53;;;;;;;7.35;4.65;;;19.50;99.90;;;;;;4992030;28;20050;-67
2023/06/26 04:08:20;;;;;;;8.13;5.13;;;19.60;99.90;;;;;;4999734;28;20034;-67
2023/06/26 04:10:47;;;;;;;10.20;5.13;;;19.80;99.90;;;;;;5006808;28;20025;-67
2023/06/26 04:13:14;;;;;;;9.10;4.22;;;19.90;99.90;;;;;;4995363;28;20224;-67
2023/06/26 04:15:39;;;;;;;6.80;4.80;;;19.90;99.90;;;;;;4984394;28;20117;-67
2023/06/26 04:18:05;;;;;;;9.13;5.30;;;20.10;99.90;;;;;;4988362;28;20113;-68
2023/06/26 04:20:30;;;;;;;7.55;5.13;;;20.10;99.90;;;;;;4989646;28;20037;-67
2023/06/26 04:22:56;;;;;;;7.97;5.35;;;20.30;99.90;;;;;;4988204;28;20026;-67
2023/06/26 04:25:21;;;;;;;6.10;4.05;;;20.40;99.90;;;;;;4986159;28;20523;-67
2023/06/26 04:27:47;;;;;;;8.90;4.55;;;20.50;99.90;;;;;;4984228;28;20412;-67
2023/06/26 04:30:13;;;;;;;6.40;4.60;;;20.70;99.90;;;;;;4988937;28;20109;-66
2023/06/26 04:32:38;;;;;;;6.25;4.75;;;20.80;99.90;;;;;;4990694;28;20030;-67
2023/06/26 04:35:04;;;;;;;8.10;5.00;;;21.00;99.90;;;;;;4987490;28;20476;-68
2023/06/26 04:37:30;;;;;;;7.22;5.15;;;21.40;99.90;;;;;;4987553;28;20866;-67
2023/06/26 04:39:55;;;;;;;7.35;4.68;;;22.10;99.90;;;;;;4987311;28;20035;-67
2023/06/26 04:42:21;;;;;;;5.57;3.97;;;23.00;99.90;;;;;;4979512;28;20031;-67
2023/06/26 04:44:47;;;;;;;8.15;5.00;;;23.90;98.90;;;;;;4984355;28;20487;-68
2023/06/26 04:47:14;;;;;;;8.73;4.63;;;24.10;97.50;;;;;;4987874;28;20476;-67
2023/06/26 04:49:45;;;;;;;6.32;3.85;;;24.50;96.30;;;;;;4988264;28;20029;-67
2023/06/26 04:52:13;;;;;;;6.50;4.25;;;24.80;95.20;;;;;;4989495;28;20447;-66
2023/06/26 04:54:39;;;;;;;10.85;5.18;;;24.80;95.40;;;;;;4989283;28;20026;-67
2023/06/26 04:57:05;;;;;;;8.00;4.28;;;25.40;95.50;;;;;;4981170;28;20411;-67
2023/06/26 04:59:31;;;;;;;9.38;4.10;;;26.00;93.40;;;;;;4987829;28;20116;-68
2023/06/26 05:01:57;;;;;;;5.95;4.18;;;26.40;92.40;;;;;;4988869;28;20130;-69
2023/06/26 05:04:22;;;;;;;5.28;3.95;;;27.20;91.30;;;;;;4987372;28;20053;-67
2023/06/26 05:06:48;;;;;;;6.07;3.35;;;27.70;91.00;;;;;;4986645;28;20403;-68
2023/06/26 05:09:14;;;;;;;5.93;3.70;;;28.30;88.60;;;;;;4987659;28;20388;-65
2023/06/26 05:11:39;;;;;;;6.40;4.10;;;28.70;85.40;;;;;;4989035;28;20054;-65
2023/06/26 05:14:09;;;;;;;5.60;3.45;;;28.90;85.10;;;;;;4984858;28;20554;-66
2023/06/26 05:16:35;;;;;;;9.07;3.85;;;29.10;83.80;;;;;;4985324;28;20119;-66
2023/06/26 05:19:01;;;;;;;7.20;4.18;;;29.50;82.80;;;;;;4988780;28;20504;-66
2023/06/26 05:21:27;;;;;;;6.45;3.42;;;29.90;80.50;;;;;;4988498;28;20025;-66
2023/06/26 05:23:56;;;;;;;4.57;3.58;;;30.00;80.00;;;;;;4988316;28;20410;-66
2023/06/26 05:26:22;;;;;;;4.95;3.35;;;29.80;80.60;;;;;;4990044;28;20037;-65
2023/06/26 05:28:48;;;;;;;9.80;4.05;;;29.90;80.70;;;;;;4996538;28;20030;-65
2023/06/26 05:31:15;;;;;;;5.57;3.42;;;30.00;78.80;;;;;;4985573;28;20035;-68
2023/06/26 05:33:44;;;;;;;6.60;3.63;;;30.00;78.70;;;;;;4992395;28;20487;-65
2023/06/26 05:36:09;;;;;;;4.47;3.10;;;30.10;78.20;;;;;;4990844;28;20033;-65
2023/06/26 05:38:35;;;;;;;4.45;3.13;;;30.30;77.90;;;;;;4991512;28;20023;-65
2023/06/26 05:41:01;;;;;;;5.78;3.60;;;30.00;77.00;;;;;;4990947;28;20080;-65
2023/06/26 05:43:27;;;;;;;5.10;3.40;;;29.90;78.20;;;;;;4993166;28;20029;-65
2023/06/26 05:45:52;;;;;;;6.22;3.63;;;29.70;78.30;;;;;;4990452;28;20046;-65
2023/06/26 05:48:18;;;;;;;11.00;3.50;;;29.60;78.70;;;;;;4992067;28;20073;-69
2023/06/26 05:50:45;;;;;;;15.38;3.83;;;29.90;79.00;;;;;;4985419;28;20041;-65
2023/06/26 05:53:10;;;;;;;6.95;3.20;;;30.20;77.20;;;;;;4985009;28;20439;-65
2023/06/26 05:55:36;;;;;;;8.40;3.40;;;29.90;77.10;;;;;;4985515;28;20042;-65
2023/06/26 05:58:02;;;;;;;5.32;3.95;;;29.20;78.20;;;;;;4981462;28;20022;-65
2023/06/26 06:00:29;;;;;;;10.18;4.13;;;28.10;80.00;;;;;;4983994;28;20042;-68
2023/06/26 06:02:54;;;;;;;5.63;3.33;;;27.30;82.60;;;;;;4981377;28;20045;-67
2023/06/26 06:05:23;;;;;;;11.57;3.33;;;27.00;83.40;;;;;;4983925;28;20026;-68
2023/06/26 06:07:49;;;;;;;8.50;3.83;;;27.00;84.20;;;;;;4986037;28;20533;-67
2023/06/26 06:10:15;;;;;;;4.88;3.40;;;26.40;85.10;;;;;;4991384;28;20101;-66
2023/06/26 06:12:40;;;;;;;12.65;3.20;;;26.40;86.20;;;;;;4990334;28;20128;-67
2023/06/26 06:15:07;;;;;;;4.72;3.28;;;26.90;86.50;;;;;;4982170;28;20408;-69
2023/06/26 06:17:32;;;;;;;4.68;2.88;;;27.30;85.50;;;;;;4987009;28;20037;-68
2023/06/26 06:19:58;;;;;;;6.90;3.42;;;28.00;81.90;;;;;;4989383;28;20042;-68
2023/06/26 06:22:23;;;;;;;5.80;3.28;;;28.20;82.20;;;;;;4983084;28;20088;-69
2023/06/26 06:24:50;;;;;;;7.32;3.95;;;28.30;80.90;;;;;;4992074;28;20577;-68
2023/06/26 06:27:16;;;;;;;9.82;3.30;;;27.70;80.70;;;;;;4985684;28;20034;-69
2023/06/26 06:29:42;;;;;;;5.95;2.90;;;28.00;83.20;;;;;;4981068;28;20735;-68
2023/06/26 06:32:08;;;;;;;7.40;3.13;;;28.80;80.20;;;;;;4986414;28;20022;-68
2023/06/26 06:34:33;;;;;;;6.28;3.33;;;29.80;77.70;;;;;;4981488;28;20116;-67
2023/06/26 06:36:59;;;;;;;7.07;3.25;;;30.00;77.40;;;;;;4989876;28;20039;-68
2023/06/26 06:39:24;;;;;;;7.57;3.10;;;30.80;75.60;;;;;;4992984;28;20030;-68
2023/06/26 06:41:50;;;;;;;9.63;3.08;;;31.10;74.40;;;;;;4989803;28;20502;-68
2023/06/26 06:44:15;;;;;;;11.73;3.15;;;31.50;74.20;;;;;;4988232;28;20026;-65
2023/06/26 06:46:41;;;;;;;7.03;3.22;;;30.60;74.60;;;;;;4983289;28;20476;-67
2023/06/26 06:49:08;;;;;;;9.85;3.25;;;30.00;76.40;;;;;;4990495;28;20057;-67
2023/06/26 06:51:33;;;;;;;5.40;3.33;;;30.10;76.30;;;;;;4990104;28;20081;-68
2023/06/26 06:53:59;;;;;;;10.90;3.67;;;29.70;76.70;;;;;;4982445;28;20030;-67
2023/06/26 06:56:24;;;;;;;11.75;3.53;;;28.90;78.20;;;;;;4987020;28;20034;-67
2023/06/26 06:58:50;;;;;;;10.25;3.10;;;27.90;80.20;;;;;;4987205;28;20022;-67
2023/06/26 07:01:15;;;;;;;9.43;3.58;;;28.30;81.90;;;;;;4979816;28;20027;-67
2023/06/26 07:03:41;;;;;;;7.40;3.08;;;28.80;79.80;;;;;;4990180;28;20026;-67
2023/06/26 07:06:07;;;;;;;7.07;3.13;;;28.90;78.90;;;;;;4990993;28;20053;-68
2023/06/26 07:08:32;;;;;;;10.63;3.47;;;28.50;78.80;;;;;;4980901;28;20030;-67
2023/06/26 07:10:58;;;;;;;7.70;3.45;;;27.50;81.00;;;;;;4989915;28;20030;-67
2023/06/26 07:13:24;;;;;;;7.68;3.30;;;26.80;84.00;;;;;;4989160;28;20026;-67
2023/06/26 07:15:49;;;;;;;10.90;3.63;;;26.70;86.30;;;;;;4981627;28;20109;-67
2023/06/26 07:18:15;;;;;;;6.80;3.15;;;27.10;86.20;;;;;;4984052;28;20098;-67
2023/06/26 07:20:41;;;;;;;6.22;2.83;;;28.40;84.70;;;;;;4989550;28;20058;-68
2023/06/26 07:23:07;;;;;;;5.80;2.80;;;29.50;81.20;;;;;;4986867;28;20477;-67
2023/06/26 07:25:32;;;;;;;7.25;3.40;;;30.20;77.40;;;;;;4986773;28;20061;-68
2023/06/26 07:27:58;;;;;;;8.52;3.25;;;30.20;78.60;;;;;;4984444;28;20699;-68
2023/06/26 07:30:24;;;;;;;8.38;3.42;;;30.30;77.50;;;;;;4989537;28;20496;-66
2023/06/26 07:32:50;;;;;;;9.00;3.08;;;30.80;75.50;;;;;;4989892;28;20152;-68
2023/06/26 07:35:15;;;;;;;5.60;2.55;;;31.10;76.10;;;;;;4986671;28;20042;-68
2023/06/26 07:37:41;;;;;;;6.25;3.17;;;31.80;74.10;;;;;;4981057;28;20475;-67
2023/06/26 07:40:07;;;;;;;7.88;3.20;;;32.00;72.70;;;;;;4988993;28;20092;-67
2023/06/26 07:42:32;;;;;;;10.73;3.17;;;31.50;74.30;;;;;;4984773;28;20027;-67
2023/06/26 07:44:58;;;;;;;6.20;3.40;;;31.70;72.80;;;;;;4985672;28;20092;-67
2023/06/26 07:47:23;;;;;;;5.82;3.13;;;32.30;72.80;;;;;;4983555;28;20030;-68
2023/06/26 07:49:49;;;;;;;6.53;3.72;;;33.00;71.10;;;;;;4983753;28;20030;-67
2023/06/26 07:52:15;;;;;;;7.30;3.08;;;33.50;71.00;;;;;;4989024;28;20423;-64
2023/06/26 07:54:40;;;;;;;7.78;2.97;;;33.10;69.80;;;;;;4989927;28;20049;-67
2023/06/26 07:57:11;;;;;;;7.28;2.95;;;32.10;72.70;;;;;;4985013;28;20041;-68
2023/06/26 07:59:36;;;;;;;8.13;2.90;;;31.30;73.00;;;;;;4986766;28;20030;-67
2023/06/26 08:02:02;;;;;;;5.32;2.80;;;31.30;73.70;;;;;;4990616;28;20022;-67
2023/06/26 08:04:32;;;;;;;6.20;2.65;;;31.90;72.10;;;;;;4989510;28;20045;-68
2023/06/26 08:06:58;;;;;;;5.55;2.47;;;32.70;71.10;;;;;;4980442;28;20026;-67
2023/06/26 08:09:26;;;;;;;8.18;3.80;;;33.50;71.50;;;;;;4989067;28;20019;-67
2023/06/26 08:11:52;;;;;;;4.65;2.47;;;33.70;70.80;;;;;;4986619;28;20379;-67
2023/06/26 08:14:18;;;;;;;5.18;2.70;;;33.80;69.40;;;;;;4989124;28;20023;-66
2023/06/26 08:16:44;;;;;;;6.05;2.92;;;33.40;70.60;;;;;;4991069;28;20027;-67
2023/06/26 08:19:10;;;;;;;5.95;3.28;;;34.10;69.70;;;;;;4988842;28;20049;-67
2023/06/26 08:21:36;;;;;;;5.85;3.13;;;34.40;69.90;;;;;;4987841;28;20026;-67
2023/06/26 08:24:02;;;;;;;6.75;3.28;;;34.20;68.40;;;;;;4990845;28;20085;-69
2023/06/26 08:26:28;;;;;;;7.15;3.15;;;33.40;68.70;;;;;;4982524;28;20023;-67
2023/06/26 08:28:54;;;;;;;9.70;3.17;;;32.70;71.20;;;;;;4989359;28;20029;-66
2023/06/26 08:31:20;;;;;;;8.25;2.63;;;32.60;70.00;;;;;;4988973;28;20027;-67
2023/06/26 08:33:46;;;;;;;8.40;3.10;;;31.50;71.70;;;;;;4981293;28;20011;-67
2023/06/26 08:36:12;;;;;;;11.07;2.55;;;30.90;73.80;;;;;;4988545;28;20423;-67
2023/06/26 08:38:40;;;;;;;6.57;3.28;;;31.30;74.90;;;;;;4989155;28;20052;-67
2023/06/26 08:41:06;;;;;;;4.93;2.42;;;31.70;72.30;;;;;;4988150;28;20021;-67
2023/06/26 08:43:31;;;;;;;9.68;2.92;;;32.00;72.00;;;;;;4986390;28;20021;-67
2023/06/26 08:45:57;;;;;;;7.50;3.13;;;32.40;71.40;;;;;;4987632;28;20121;-67
2023/06/26 08:48:23;;;;;;;7.97;2.47;;;32.20;70.50;;;;;;4979789;28;20381;-66
2023/06/26 08:50:52;;;;;;;6.53;2.60;;;31.80;71.60;;;;;;4976671;28;20035;-67
2023/06/26 08:53:43;;;;;;;6.65;3.03;;;32.20;73.00;;;;;;4980202;28;20034;-67
2023/06/26 08:56:11;;;;;;;5.13;2.50;;;32.40;70.00;;;;;;4983130;28;20038;-67
2023/06/26 08:58:38;;;;;;;5.32;2.45;;;31.80;72.10;;;;;;4981890;28;20294;-67
2023/06/26 09:01:05;;;;;;;6.50;2.60;;;32.00;73.10;;;;;;4979797;28;20052;-67
2023/06/26 09:03:31;;;;;;;7.32;3.15;;;32.70;72.20;;;;;;4989480;28;20034;-66
2023/06/26 09:05:57;;;;;;;13.90;2.90;;;32.10;70.60;;;;;;4983623;28;20030;-67
2023/06/26 09:08:23;;;;;;;8.55;3.17;;;31.40;72.70;;;;;;4989426;28;20026;-67
2023/06/26 09:10:48;;;;;;;6.32;3.08;;;30.10;74.10;;;;;;4991367;28;20026;-66
2023/06/26 09:13:14;;;;;;;13.68;3.63;;;29.60;76.70;;;;;;4984004;28;20040;-66
2023/06/26 09:15:43;;;;;;;7.15;3.20;;;30.00;76.20;;;;;;4985529;28;20520;-67
2023/06/26 09:18:09;;;;;;;8.27;3.20;;;30.30;74.40;;;;;;4980978;28;20523;-67
2023/06/26 09:20:35;;;;;;;16.13;3.50;;;30.50;74.80;;;;;;4982282;28;20057;-67
2023/06/26 09:23:02;;;;;;;7.82;3.30;;;31.20;72.80;;;;;;4991081;28;20396;-67
2023/06/26 09:25:28;;;;;;;5.75;3.47;;;31.40;73.00;;;;;;4985876;28;20027;-67
2023/06/26 09:27:55;;;;;;;5.68;2.90;;;30.40;72.80;;;;;;4987752;28;20101;-67
2023/06/26 09:30:20;;;;;;;8.43;3.70;;;29.70;74.40;;;;;;4989529;28;20121;-66
2023/06/26 09:32:47;;;;;;;9.25;3.55;;;29.40;74.70;;;;;;4979696;28;20106;-66
2023/06/26 09:35:12;;;;;;;8.32;3.63;;;28.90;75.50;;;;;;4986484;28;20023;-66
2023/06/26 09:37:38;;;;;;;6.35;3.17;;;28.30;76.20;;;;;;4985394;28;20041;-66
2023/06/26 09:40:04;;;;;;;5.97;3.10;;;28.00;78.40;;;;;;4977629;28;20485;-65
2023/06/26 09:42:30;;;;;;;7.90;3.42;;;28.10;79.50;;;;;;4992352;28;20042;-66
2023/06/26 09:44:56;;;;;;;8.93;3.10;;;28.10;77.30;;;;;;4992751;28;20030;-67
2023/06/26 09:47:22;;;;;;;8.95;2.90;;;28.00;78.50;;;;;;4991956;28;20030;-67
2023/06/26 09:49:48;;;;;;;7.60;2.80;;;28.00;78.10;;;;;;4993342;28;20022;-66
2023/06/26 09:52:16;;;;;;;5.72;2.22;;;28.40;78.80;;;;;;4991123;28;20037;-67
2023/06/26 09:54:45;;;;;;;4.70;2.33;;;28.80;78.80;;;;;;4991839;28;20110;-67
2023/06/26 09:57:18;;;;;;;11.38;2.50;;;29.40;78.50;;;;;;4984989;28;20023;-67
2023/06/26 09:59:45;;;;;;;6.63;2.88;;;30.10;75.40;;;;;;4984118;28;20022;-66
2023/06/26 10:02:11;;;;;;;6.72;2.67;;;29.60;74.00;;;;;;4979759;28;20031;-67
2023/06/26 10:04:37;;;;;;;9.73;3.13;;;29.60;75.10;;;;;;4980823;28;20038;-67
2023/06/26 10:07:06;;;;;;;8.05;3.15;;;29.30;74.40;;;;;;4978637;28;20113;-67
2023/06/26 10:09:32;;;;;;;4.88;2.80;;;28.80;75.80;;;;;;4988666;28;20025;-67
2023/06/26 10:12:11;;;;;;;5.18;2.90;;;29.10;76.90;;;;;;4991363;28;20030;-67
2023/06/26 10:14:41;;;;;;;7.40;3.13;;;28.90;76.40;;;;;;4989334;28;20022;-67
2023/06/26 10:17:10;;;;;;;3.58;2.33;;;28.40;76.10;;;;;;4984292;28;20035;-66
2023/06/26 10:19:39;;;;;;;9.73;3.00;;;27.50;78.00;;;;;;4982901;28;20027;-66
2023/06/26 10:22:05;;;;;;;5.93;2.40;;;27.20;79.00;;;;;;4982905;28;20030;-66
2023/06/26 10:24:34;;;;;;;7.05;2.50;;;27.50;78.50;;;;;;4981810;28;20058;-67
2023/06/26 10:27:20;;;;;;;8.05;2.40;;;28.00;77.10;;;;;;4987676;28;20045;-66
2023/06/26 10:29:58;;;;;;;9.45;3.10;;;28.50;76.50;;;;;;4977542;28;20033;-66
2023/06/26 10:32:25;;;;;;;6.45;2.70;;;28.20;75.10;;;;;;4990419;28;20031;-67
2023/06/26 10:34:52;;;;;;;6.18;2.20;;;28.20;75.40;;;;;;4968305;28;20476;-66
2023/06/26 10:37:17;;;;;;;7.82;2.25;;;27.90;73.60;;;;;;4982117;28;20030;-66
2023/06/26 10:39:51;;;;;;;9.20;2.20;;;27.10;76.10;;;;;;4990230;28;20022;-66
2023/06/26 10:42:18;;;;;;;6.45;2.58;;;27.00;77.00;;;;;;4987321;28;20037;-65
2023/06/26 10:44:45;;;;;;;6.70;1.90;;;27.10;76.30;;;;;;4982734;28;20026;-65
2023/06/26 10:47:28;;;;;;;5.72;2.20;;;27.10;76.80;;;;;;4989410;28;20045;-66
2023/06/26 10:49:53;;;;;;;6.77;1.60;;;27.60;76.30;;;;;;4990690;28;20037;-66
2023/06/26 10:52:19;;;;;;;10.90;2.75;;;27.70;75.70;;;;;;4988431;28;20419;-64
2023/06/26 10:54:44;;;;;;;7.32;2.13;;;28.00;76.30;;;;;;4982259;28;20042;-66
2023/06/26 10:57:10;;;;;;;6.68;2.63;;;27.80;73.30;;;;;;4988504;28;20027;-66
2023/06/26 10:59:40;;;;;;;5.50;2.50;;;27.70;74.90;;;;;;4984700;28;20023;-67
2023/06/26 11:02:06;;;;;;;10.00;2.67;;;27.90;74.20;;;;;;4989892;28;20026;-66
2023/06/26 11:04:49;;;;;;;6.80;2.00;;;27.50;74.30;;;;;;4983443;28;20048;-66
2023/06/26 11:07:15;;;;;;;;;;;27.10;75.10;;;;;;4989366;28;20034;-66
2023/06/26 11:10:07;;;;;;;6.03;2.35;;;27.30;74.90;;;;;;4990298;28;19937;-66
2023/06/26 11:12:37;;;;;;;10.18;2.28;;;27.30;76.90;;;;;;4977786;28;20032;-67
2023/06/26 11:15:13;;;;;;;3.30;1.60;;;27.70;77.50;;;;;;4961370;28;20760;-66
2023/06/26 11:17:40;;;;;;;6.43;2.03;;;27.50;73.20;;;;;;4989106;28;20026;-67
2023/06/26 11:20:10;;;;;;;4.38;1.52;;;27.30;72.40;;;;;;4988745;28;20029;-66
2023/06/26 11:22:38;;;;;;;5.18;1.88;;;27.60;71.70;;;;;;4987859;28;20523;-66
2023/06/26 11:25:05;;;;;;;3.42;1.88;;;27.40;71.10;;;;;;4987938;28;20030;-66
2023/06/26 11:27:32;;;;;;;2.55;1.50;;;27.60;75.60;;;;;;4984747;28;20038;-67
2023/06/26 11:29:57;;;;;;;8.82;2.03;;;27.60;72.40;;;;;;4975800;28;20080;-66
2023/06/26 11:32:26;;;;;;;3.63;1.50;;;27.50;71.90;;;;;;4982754;28;20461;-67
2023/06/26 11:34:52;;;;;;;3.42;1.55;;;27.50;72.70;;;;;;4978856;28;20038;-67
2023/06/26 11:37:19;;;;;;;9.32;1.83;;;27.50;70.80;;;;;;4977341;28;20026;-67
2023/06/26 11:39:45;;;;;;;5.50;1.75;;;27.30;71.20;;;;;;4975421;28;20476;-67
2023/06/26 11:42:11;;;;;;;4.18;1.63;;;27.40;70.60;;;;;;4989501;28;20034;-67
2023/06/26 11:44:43;;;;;;;6.60;2.00;;;27.30;72.20;;;;;;4983337;28;20540;-67
2023/06/26 11:47:14;;;;;;;6.03;1.60;;;27.30;73.20;;;;;;4985009;28;20031;-67
2023/06/26 11:49:42;;;;;;;9.10;2.03;;;27.40;72.20;;;;;;4978484;28;20033;-66
2023/06/26 11:52:08;;;;;;;3.00;1.35;;;26.90;70.30;;;;;;4989614;28;20030;-67
2023/06/26 11:54:34;;;;;;;3.90;1.23;;;26.80;68.60;;;;;;4984631;28;20026;-67
2023/06/26 11:57:00;;;;;;;5.45;1.85;;;26.60;70.10;;;;;;4984835;28;20106;-66
2023/06/26 11:59:39;;;;;;;5.88;1.65;;;26.80;69.40;;;;;;4986454;28;20030;-68
2023/06/26 12:02:13;;;;;;;5.38;1.75;;;27.00;69.80;;;;;;4989342;28;20487;-67
2023/06/26 12:04:41;;;;;;;3.20;1.52;;;27.10;69.90;;;;;;4990171;28;20053;-67
2023/06/26 12:07:09;;;;;;;7.75;1.80;;;27.20;70.00;;;;;;4982460;28;20054;-67
2023/06/26 12:09:43;;;;;;;5.05;1.95;;;27.10;71.50;;;;;;4986531;28;20611;-67
2023/06/26 12:12:10;;;;;;;3.80;1.60;;;27.20;71.70;;;;;;4978455;28;20052;-67
2023/06/26 12:14:36;;;;;;;6.40;1.77;;;27.40;71.30;;;;;;4996853;28;20483;-67
2023/06/26 12:17:08;;;;;;;6.88;1.90;;;27.20;67.60;;;;;;4986909;28;20084;-67
2023/06/26 12:19:36;;;;;;;2.70;1.40;;;27.40;68.40;;;;;;4976871;28;20023;-66
2023/06/26 12:22:06;;;;;;;3.40;1.50;;;27.30;67.40;;;;;;4981901;28;20031;-67
2023/06/26 12:24:32;;;;;;;6.63;1.65;;;27.60;68.90;;;;;;4975707;28;20033;-67
2023/06/26 12:26:57;;;;;;;5.53;1.98;;;27.40;69.40;;;;;;4986123;28;20026;-67
2023/06/26 12:29:33;;;;;;;4.00;1.58;;;27.30;70.20;;;;;;4985362;28;20053;-67
2023/06/26 12:31:59;;;;;;;7.72;1.75;;;27.50;69.90;;;;;;4985682;28;20042;-67
2023/06/26 12:34:32;;;;;;;4.53;1.67;;;27.10;68.60;;;;;;4988456;28;20388;-67
2023/06/26 12:37:11;;;;;;;4.95;1.30;;;26.90;69.80;;;;;;4986027;28;20030;-67
2023/06/26 12:39:47;;;;;;;4.88;1.60;;;26.60;69.60;;;;;;4985942;28;20026;-67
2023/06/26 12:42:33;;;;;;;4.53;1.95;;;26.70;70.20;;;;;;4985907;28;20045;-67
2023/06/26 12:44:59;;;;;;;3.22;1.20;;;26.50;70.20;;;;;;4982123;28;20073;-66
2023/06/26 12:47:26;;;;;;;4.75;1.50;;;26.40;69.70;;;;;;4985353;28;20062;-67
2023/06/26 12:49:53;;;;;;;4.30;1.48;;;26.40;68.60;;;;;;4983548;28;20054;-67